createdAt,value
2023-03-30T00:02:13.083Z,100573.73
2023-03-30T00:04:43.437Z,100577.38
2023-03-30T00:07:12.393Z,100582.80
2023-03-30T00:09:43.041Z,100588.61
2023-03-30T00:12:11.798Z,100587.58
2023-03-30T00:14:42.483Z,100581.31
2023-03-30T00:17:11.366Z,100581.68
2023-03-30T00:19:40.599Z,100583.97
2023-03-30T00:22:09.862Z,100575.66
2023-03-30T00:24:38.334Z,100575.14
2023-03-30T00:27:07.121Z,100570.68
2023-03-30T00:29:36.012Z,100567.67
2023-03-30T00:32:04.985Z,100564.70
2023-03-30T00:34:33.723Z,100558.61
2023-03-30T00:37:03.210Z,100537.88
2023-03-30T00:39:31.779Z,100536.23
2023-03-30T00:42:00.671Z,100545.37
2023-03-30T00:44:47.685Z,100548.15
2023-03-30T00:47:17.029Z,100542.64
2023-03-30T00:49:45.882Z,100535.98
2023-03-30T00:52:16.407Z,100532.17
2023-03-30T00:54:44.994Z,100539.47
2023-03-30T00:57:13.854Z,100538.41
2023-03-30T00:59:42.893Z,100539.41
2023-03-30T01:02:11.572Z,100539.72
2023-03-30T01:04:40.560Z,100539.72
2023-03-30T01:07:11.708Z,100543.08
2023-03-30T01:09:41.035Z,100537.25
2023-03-30T01:12:10.612Z,100537.34
2023-03-30T01:14:39.199Z,100534.81
2023-03-30T01:17:15.293Z,100545.13
2023-03-30T01:19:48.737Z,100548.14
2023-03-30T01:22:19.034Z,100544.25
2023-03-30T01:24:51.052Z,100525.08
2023-03-30T01:27:21.970Z,100526.44
2023-03-30T01:30:08.843Z,100515.36
2023-03-30T01:32:43.117Z,100497.49
2023-03-30T01:35:14.537Z,100501.30
2023-03-30T01:38:02.757Z,100507.44
2023-03-30T01:40:33.448Z,100502.17
2023-03-30T01:43:03.714Z,100488.77
2023-03-30T01:45:40.042Z,100497.38
2023-03-30T01:48:26.238Z,100501.98
2023-03-30T01:50:56.452Z,100492.52
2023-03-30T01:53:35.590Z,100499.96
2023-03-30T01:56:08.158Z,100521.98
2023-03-30T01:58:41.087Z,100521.14
2023-03-30T02:01:10.861Z,100521.30
2023-03-30T02:03:39.893Z,100525.11
2023-03-30T02:06:10.732Z,100522.95
2023-03-30T02:08:40.422Z,100536.34
2023-03-30T02:11:08.968Z,100532.41
2023-03-30T02:13:37.447Z,100529.41
2023-03-30T02:16:11.829Z,100534.38
2023-03-30T02:18:42.284Z,100538.32
2023-03-30T02:21:10.939Z,100531.76
2023-03-30T02:23:41.159Z,100532.41
2023-03-30T02:26:10.602Z,100532.41
2023-03-30T02:28:39.392Z,100525.97
2023-03-30T02:31:12.929Z,100530.56
2023-03-30T02:33:46.943Z,100523.23
2023-03-30T02:36:23.923Z,100529.09
2023-03-30T02:38:54.439Z,100533.48
2023-03-30T02:41:28.497Z,100512.34
2023-03-30T02:43:58.883Z,100529.20
2023-03-30T02:46:29.223Z,100538.66
2023-03-30T02:48:59.663Z,100544.81
2023-03-30T02:51:43.503Z,100529.93
2023-03-30T02:54:16.345Z,100528.61
2023-03-30T02:57:10.764Z,100508.77
2023-03-30T02:59:41.412Z,100508.08
2023-03-30T03:02:15.399Z,100496.09
2023-03-30T03:04:46.293Z,100503.80
2023-03-30T03:07:30.726Z,100495.98
2023-03-30T03:10:00.191Z,100488.45
2023-03-30T03:12:29.238Z,100495.75
2023-03-30T03:14:57.778Z,100492.52
2023-03-30T03:17:28.676Z,100490.19
2023-03-30T03:19:57.219Z,100493.94
2023-03-30T03:22:25.796Z,100489.23
2023-03-30T03:24:54.325Z,100488.75
2023-03-30T03:27:24.604Z,100489.75
2023-03-30T03:30:12.411Z,100492.33
2023-03-30T03:32:42.912Z,100479.80
2023-03-30T03:35:12.262Z,100483.71
2023-03-30T03:37:40.838Z,100479.73
2023-03-30T03:40:11.792Z,100467.80
2023-03-30T03:42:40.703Z,100475.10
2023-03-30T03:45:13.778Z,100469.18
2023-03-30T03:47:55.926Z,100478.75
2023-03-30T03:50:26.406Z,100474.72
2023-03-30T03:52:55.323Z,100486.22
2023-03-30T03:55:24.260Z,100487.69
2023-03-30T03:57:53.586Z,100483.94
2023-03-30T04:00:23.236Z,100487.62
2023-03-30T04:02:52.985Z,100493.06
2023-03-30T04:05:21.541Z,100491.80
2023-03-30T04:07:50.503Z,100491.00
2023-03-30T04:10:20.830Z,100499.16
2023-03-30T04:13:00.345Z,100494.48
2023-03-30T04:15:33.627Z,100505.66
2023-03-30T04:18:16.133Z,100497.55
2023-03-30T04:20:52.155Z,100494.96
2023-03-30T04:23:30.138Z,100495.11
2023-03-30T04:26:17.839Z,100490.23
2023-03-30T04:28:48.251Z,100488.77
2023-03-30T04:31:22.847Z,100482.18
2023-03-30T04:34:04.366Z,100490.53
2023-03-30T04:36:42.371Z,100488.97
2023-03-30T04:39:21.476Z,100492.23
2023-03-30T04:41:58.177Z,100487.94
2023-03-30T04:44:28.944Z,100486.33
2023-03-30T04:46:59.264Z,100487.25
2023-03-30T04:49:38.686Z,100489.88
2023-03-30T04:52:18.115Z,100494.09
2023-03-30T04:55:07.116Z,100488.23
2023-03-30T04:57:53.782Z,100485.92
2023-03-30T05:00:40.390Z,100484.28
2023-03-30T05:03:27.443Z,100479.81
2023-03-30T05:06:07.477Z,100480.84
2023-03-30T05:08:44.336Z,100469.48
2023-03-30T05:11:18.141Z,100475.13
2023-03-30T05:13:48.358Z,100476.11
2023-03-30T05:16:18.623Z,100480.06
2023-03-30T05:18:50.805Z,100482.16
2023-03-30T05:21:31.633Z,100487.20
2023-03-30T05:24:08.614Z,100492.08
2023-03-30T05:26:39.024Z,100488.97
2023-03-30T05:29:15.811Z,100487.35
2023-03-30T05:31:53.201Z,100492.59
2023-03-30T05:34:27.117Z,100496.73
2023-03-30T05:37:00.146Z,100487.98
2023-03-30T05:39:48.801Z,100495.70
2023-03-30T05:42:27.877Z,100493.11
2023-03-30T05:44:58.208Z,100500.73
2023-03-30T05:47:29.058Z,100506.73
2023-03-30T05:49:59.368Z,100518.09
2023-03-30T05:52:29.596Z,100516.62
2023-03-30T05:55:16.551Z,100510.76
2023-03-30T05:57:50.268Z,100525.56
2023-03-30T06:00:26.280Z,100512.48
2023-03-30T06:02:57.540Z,100510.09
2023-03-30T06:05:27.532Z,100505.73
2023-03-30T06:07:56.222Z,100510.28
2023-03-30T06:10:25.013Z,100511.41
2023-03-30T06:12:53.898Z,100508.41
2023-03-30T06:15:27.233Z,100511.70
2023-03-30T06:18:02.049Z,100518.65
2023-03-30T06:20:31.329Z,100509.41
2023-03-30T06:23:00.322Z,100516.66
2023-03-30T06:25:30.132Z,100518.44
2023-03-30T06:27:59.234Z,100525.33
2023-03-30T06:30:28.323Z,100527.05
2023-03-30T06:32:59.219Z,100531.17
2023-03-30T06:35:43.531Z,100544.02
2023-03-30T06:38:13.399Z,100547.40
2023-03-30T06:40:41.953Z,100542.30
2023-03-30T06:43:12.300Z,100546.81
2023-03-30T06:45:42.614Z,100545.87
2023-03-30T06:48:11.509Z,100545.39
2023-03-30T06:50:40.742Z,100548.09
2023-03-30T06:53:23.373Z,100552.36
2023-03-30T06:55:52.781Z,100561.00
2023-03-30T06:58:22.064Z,100564.33
2023-03-30T07:00:51.113Z,100553.61
2023-03-30T07:03:37.976Z,100551.68
2023-03-30T07:06:09.671Z,100558.30
2023-03-30T07:08:40.301Z,100570.91
2023-03-30T07:11:10.475Z,100569.30
2023-03-30T07:13:40.570Z,100586.46
2023-03-30T07:16:10.065Z,100591.50
2023-03-30T07:18:38.768Z,100584.27
2023-03-30T07:21:07.452Z,100590.21
2023-03-30T07:23:38.121Z,100588.86
2023-03-30T07:26:07.038Z,100596.78
2023-03-30T07:28:41.777Z,100585.92
2023-03-30T07:31:13.356Z,100592.70
2023-03-30T07:33:42.999Z,100599.55
2023-03-30T07:36:15.495Z,100591.17
2023-03-30T07:38:44.328Z,100597.47
2023-03-30T07:41:14.183Z,100592.86
2023-03-30T07:43:44.038Z,100593.16
2023-03-30T07:46:12.677Z,100584.90
2023-03-30T07:48:42.969Z,100600.78
2023-03-30T07:51:13.567Z,100599.16
2023-03-30T07:53:48.078Z,100603.89
2023-03-30T07:56:18.243Z,100600.63
2023-03-30T07:58:48.869Z,100609.42
2023-03-30T08:01:18.487Z,100613.47
2023-03-30T08:03:55.052Z,100619.70
2023-03-30T08:06:24.231Z,100621.19
2023-03-30T08:08:55.199Z,100627.94
2023-03-30T08:11:24.035Z,100621.11
2023-03-30T08:13:52.551Z,100631.86
2023-03-30T08:16:21.341Z,100639.22
2023-03-30T08:18:49.903Z,100629.97
2023-03-30T08:21:19.757Z,100639.52
2023-03-30T08:23:48.614Z,100654.77
2023-03-30T08:26:18.393Z,100648.14
2023-03-30T08:28:47.186Z,100652.25
2023-03-30T08:31:17.637Z,100641.78
2023-03-30T08:33:46.718Z,100650.05
2023-03-30T08:36:15.452Z,100661.09
2023-03-30T08:38:45.624Z,100659.67
2023-03-30T08:41:18.861Z,100658.59
2023-03-30T08:43:52.058Z,100659.45
2023-03-30T08:46:21.152Z,100670.48
2023-03-30T08:48:51.719Z,100670.23
2023-03-30T08:51:23.406Z,100669.14
2023-03-30T08:54:02.067Z,100661.44
2023-03-30T08:56:36.966Z,100675.59
2023-03-30T08:59:07.257Z,100667.52
2023-03-30T09:01:50.026Z,100665.91
2023-03-30T09:04:35.553Z,100674.39
2023-03-30T09:07:21.000Z,100673.00
2023-03-30T09:09:51.781Z,100680.27
2023-03-30T09:12:38.991Z,100676.77
2023-03-30T09:15:18.030Z,100672.27
2023-03-30T09:17:52.233Z,100679.95
2023-03-30T09:20:25.109Z,100688.45
2023-03-30T09:22:54.384Z,100685.58
2023-03-30T09:25:37.203Z,100686.45
2023-03-30T09:28:13.943Z,100683.16
2023-03-30T09:30:43.633Z,100690.61
2023-03-30T09:33:19.537Z,100686.15
2023-03-30T09:35:49.907Z,100678.69
2023-03-30T09:38:20.269Z,100676.08
2023-03-30T09:40:57.121Z,100683.84
2023-03-30T09:43:27.553Z,100700.88
2023-03-30T09:45:56.175Z,100687.44
2023-03-30T09:48:25.022Z,100700.84
2023-03-30T09:50:53.608Z,100686.31
2023-03-30T09:53:25.422Z,100701.04
2023-03-30T09:56:01.070Z,100701.16
2023-03-30T09:58:33.912Z,100708.39
2023-03-30T10:01:04.082Z,100720.39
2023-03-30T10:03:33.058Z,100708.27
2023-03-30T10:06:08.190Z,100713.43
2023-03-30T10:08:38.704Z,100712.48
2023-03-30T10:11:07.834Z,100719.96
2023-03-30T10:13:37.733Z,100710.48
2023-03-30T10:16:11.053Z,100702.75
2023-03-30T10:18:41.690Z,100716.47
2023-03-30T10:21:17.874Z,100706.16
2023-03-30T10:23:47.705Z,100710.63
2023-03-30T10:26:19.425Z,100705.11
2023-03-30T10:28:59.773Z,100709.61
2023-03-30T10:31:28.522Z,100733.78
2023-03-30T10:33:58.295Z,100720.98
2023-03-30T10:36:28.514Z,100712.00
2023-03-30T10:38:58.887Z,100734.22
2023-03-30T10:41:27.382Z,100732.69
2023-03-30T10:43:56.252Z,100732.45
2023-03-30T10:46:25.634Z,100735.82
2023-03-30T10:48:56.235Z,100730.77
2023-03-30T10:51:26.376Z,100733.71
2023-03-30T10:53:59.219Z,100725.57
2023-03-30T10:56:34.306Z,100717.34
2023-03-30T10:59:07.812Z,100725.41
2023-03-30T11:01:38.201Z,100721.70
2023-03-30T11:04:20.487Z,100722.71
2023-03-30T11:06:39.917Z,100721.20
2023-03-30T11:09:10.319Z,100731.08
2023-03-30T11:11:41.146Z,100733.58
2023-03-30T11:14:18.012Z,100731.87
2023-03-30T11:17:07.847Z,100743.98
2023-03-30T11:19:55.509Z,100715.14
2023-03-30T11:22:37.711Z,100738.48
2023-03-30T11:25:09.519Z,100735.61
2023-03-30T11:27:40.010Z,100731.28
2023-03-30T11:30:22.574Z,100734.16
2023-03-30T11:32:53.329Z,100741.70
2023-03-30T11:35:32.748Z,100751.52
2023-03-30T11:38:05.864Z,100743.27
2023-03-30T11:40:46.690Z,100739.21
2023-03-30T11:43:16.931Z,100737.50
2023-03-30T11:45:50.509Z,100742.09
2023-03-30T11:48:21.088Z,100755.47
2023-03-30T11:50:54.456Z,100745.67
2023-03-30T11:53:24.801Z,100761.08
2023-03-30T11:55:57.883Z,100762.25
2023-03-30T11:58:41.224Z,100761.48
2023-03-30T12:01:28.022Z,100750.42
2023-03-30T12:03:58.617Z,100773.24
2023-03-30T12:06:31.178Z,100761.71
2023-03-30T12:09:01.564Z,100767.92
2023-03-30T12:11:50.631Z,100761.96
2023-03-30T12:14:32.764Z,100762.05
2023-03-30T12:17:02.944Z,100764.84
2023-03-30T12:19:39.789Z,100776.41
2023-03-30T12:22:07.828Z,100754.77
2023-03-30T12:24:38.189Z,100765.59
2023-03-30T12:27:08.501Z,100781.86
2023-03-30T12:32:29.351Z,100763.95
2023-03-30T12:34:58.817Z,100762.02
2023-03-30T12:37:28.578Z,100762.60
2023-03-30T12:39:59.018Z,100759.83
2023-03-30T12:42:35.173Z,100768.66
2023-03-30T12:45:05.814Z,100763.14
2023-03-30T12:47:39.641Z,100757.55
2023-03-30T12:50:27.089Z,100767.30
2023-03-30T12:53:14.046Z,100755.83
2023-03-30T12:55:44.441Z,100755.30
2023-03-30T12:58:17.476Z,100752.05
2023-03-30T13:00:51.200Z,100752.67
2023-03-30T13:03:37.816Z,100746.36
2023-03-30T13:06:08.105Z,100747.36
2023-03-30T13:08:38.534Z,100744.47
2023-03-30T13:11:08.933Z,100755.67
2023-03-30T13:13:53.517Z,100760.38
2023-03-30T13:16:40.392Z,100752.44
2023-03-30T13:19:16.627Z,100735.85
2023-03-30T13:21:49.055Z,100750.16
2023-03-30T13:24:34.358Z,100753.89
2023-03-30T13:27:13.726Z,100745.94
2023-03-30T13:29:42.495Z,100745.10
2023-03-30T13:32:21.938Z,100744.19
2023-03-30T13:35:08.102Z,100759.72
2023-03-30T13:37:47.624Z,100743.02
2023-03-30T13:40:27.356Z,100741.86
2023-03-30T13:42:52.373Z,100738.52
2023-03-30T13:45:31.926Z,100744.72
2023-03-30T13:49:11.251Z,100739.87
2023-03-30T13:51:42.604Z,100737.67
2023-03-30T13:54:23.992Z,100735.50
2023-03-30T13:56:59.591Z,100732.31
2023-03-30T13:59:32.244Z,100728.11
2023-03-30T14:02:01.560Z,100718.45
2023-03-30T14:04:37.811Z,100728.42
2023-03-30T14:07:17.408Z,100719.97
2023-03-30T14:10:04.961Z,100715.94
2023-03-30T14:12:36.503Z,100713.08
2023-03-30T14:15:17.830Z,100727.07
2023-03-30T14:17:53.035Z,100721.80
2023-03-30T14:20:28.807Z,100723.80
2023-03-30T14:23:00.464Z,100732.09
2023-03-30T14:25:35.341Z,100725.08
2023-03-30T14:28:11.269Z,100718.31
2023-03-30T14:30:42.449Z,100719.16
2023-03-30T14:33:13.840Z,100720.46
2023-03-30T14:35:45.993Z,100732.41
2023-03-30T14:38:18.528Z,100724.44
2023-03-30T14:40:48.191Z,100727.72
2023-03-30T14:43:21.101Z,100724.72
2023-03-30T14:45:51.549Z,100719.81
2023-03-30T14:48:29.917Z,100728.72
2023-03-30T14:50:59.992Z,100727.11
2023-03-30T14:53:30.270Z,100723.45
2023-03-30T14:56:01.050Z,100715.00
2023-03-30T14:58:32.312Z,100729.77
2023-03-30T15:01:03.673Z,100727.25
2023-03-30T15:03:35.022Z,100722.44
2023-03-30T15:06:07.328Z,100713.80
2023-03-30T15:08:41.106Z,100724.72
2023-03-30T15:11:13.135Z,100721.71
2023-03-30T15:13:52.560Z,100723.39
2023-03-30T15:16:29.718Z,100715.13
2023-03-30T15:19:02.160Z,100716.33
2023-03-30T15:21:34.080Z,100724.64
2023-03-30T15:24:12.133Z,100713.22
2023-03-30T15:26:44.631Z,100715.52
2023-03-30T15:29:17.066Z,100714.19
2023-03-30T15:31:46.769Z,100716.99
2023-03-30T15:34:18.301Z,100718.63
2023-03-30T15:36:54.376Z,100715.99
2023-03-30T15:39:27.930Z,100719.81
2023-03-30T15:42:01.522Z,100705.22
2023-03-30T15:44:32.727Z,100721.48
2023-03-30T15:47:02.733Z,100721.80
2023-03-30T15:49:37.981Z,100717.48
2023-03-30T15:52:10.761Z,100717.67
2023-03-30T15:54:46.089Z,100710.88
2023-03-30T15:57:27.313Z,100708.54
2023-03-30T16:00:02.263Z,100706.22
2023-03-30T16:02:41.281Z,100711.52
2023-03-30T16:05:22.712Z,100710.86
2023-03-30T16:07:52.062Z,100706.18
2023-03-30T16:10:27.388Z,100712.02
2023-03-30T16:12:57.584Z,100706.70
2023-03-30T16:15:29.577Z,100702.16
2023-03-30T16:17:58.930Z,100701.22
2023-03-30T16:20:31.282Z,100698.11
2023-03-30T16:23:00.639Z,100700.91
2023-03-30T16:25:44.262Z,100703.16
2023-03-30T16:28:01.483Z,100698.44
2023-03-30T16:30:36.427Z,100692.66
2023-03-30T16:33:06.413Z,100695.39
2023-03-30T16:35:36.254Z,100703.45
2023-03-30T16:38:05.571Z,100680.86
2023-03-30T16:40:42.752Z,100684.95
2023-03-30T16:43:11.525Z,100688.97
2023-03-30T16:45:41.084Z,100690.30
2023-03-30T16:48:15.011Z,100692.13
2023-03-30T16:50:46.656Z,100687.32
2023-03-30T16:53:16.064Z,100688.72
2023-03-30T16:55:45.970Z,100687.63
2023-03-30T16:58:16.363Z,100679.64
2023-03-30T17:00:54.372Z,100698.16
2023-03-30T17:03:23.606Z,100695.69
2023-03-30T17:05:53.059Z,100700.08
2023-03-30T17:08:24.543Z,100696.72
2023-03-30T17:10:56.647Z,100692.14
2023-03-30T17:13:26.005Z,100697.84
2023-03-30T17:15:55.413Z,100692.22
2023-03-30T17:18:25.616Z,100702.80
2023-03-30T17:20:56.703Z,100700.44
2023-03-30T17:23:28.968Z,100703.03
2023-03-30T17:26:00.151Z,100711.58
2023-03-30T17:28:32.545Z,100701.61
2023-03-30T17:31:04.449Z,100702.61
2023-03-30T17:33:35.539Z,100698.79
2023-03-30T17:36:13.689Z,100696.47
2023-03-30T17:38:43.847Z,100692.03
2023-03-30T17:41:14.312Z,100689.02
2023-03-30T17:43:44.476Z,100687.67
2023-03-30T17:46:15.027Z,100690.70
2023-03-30T17:48:44.557Z,100689.02
2023-03-30T17:51:13.916Z,100693.95
2023-03-30T17:53:43.246Z,100688.06
2023-03-30T17:56:14.032Z,100690.32
2023-03-30T17:58:43.817Z,100697.21
2023-03-30T18:01:13.841Z,100695.29
2023-03-30T18:03:44.828Z,100695.56
2023-03-30T18:06:14.501Z,100699.05
2023-03-30T18:08:44.186Z,100694.30
2023-03-30T18:11:13.595Z,100701.30
2023-03-30T18:13:42.903Z,100703.19
2023-03-30T18:16:13.078Z,100698.92
2023-03-30T18:18:42.507Z,100705.39
2023-03-30T18:21:12.281Z,100697.13
2023-03-30T18:23:42.109Z,100689.20
2023-03-30T18:26:13.470Z,100696.25
2023-03-30T18:28:44.284Z,100688.20
2023-03-30T18:31:14.023Z,100696.44
2023-03-30T18:33:43.328Z,100698.09
2023-03-30T18:36:13.652Z,100692.74
2023-03-30T18:38:43.050Z,100689.02
2023-03-30T18:41:15.414Z,100690.97
2023-03-30T18:43:44.697Z,100695.75
2023-03-30T18:46:14.743Z,100691.11
2023-03-30T18:48:44.112Z,100695.67
2023-03-30T18:51:13.731Z,100699.20
2023-03-30T18:53:43.233Z,100691.72
2023-03-30T18:56:14.347Z,100689.62
2023-03-30T18:58:43.929Z,100689.56
2023-03-30T19:01:13.797Z,100697.91
2023-03-30T19:03:45.040Z,100694.61
2023-03-30T19:06:18.342Z,100688.42
2023-03-30T19:08:47.888Z,100695.14
2023-03-30T19:11:20.175Z,100692.34
2023-03-30T19:13:50.040Z,100690.22
2023-03-30T19:16:20.195Z,100683.11
2023-03-30T19:18:49.841Z,100689.02
2023-03-30T19:21:19.540Z,100688.91
2023-03-30T19:23:50.077Z,100685.89
2023-03-30T19:26:19.355Z,100685.01
2023-03-30T19:28:49.074Z,100688.01
2023-03-30T19:31:18.324Z,100675.34
2023-03-30T19:33:47.970Z,100678.27
2023-03-30T19:36:17.221Z,100684.17
2023-03-30T19:38:46.543Z,100679.80
2023-03-30T19:41:16.381Z,100680.50
2023-03-30T19:43:45.770Z,100672.46
2023-03-30T19:46:15.084Z,100676.09
2023-03-30T19:48:44.420Z,100675.25
2023-03-30T19:51:13.701Z,100675.54
2023-03-30T19:53:43.031Z,100675.20
2023-03-30T19:56:12.781Z,100674.59
2023-03-30T19:58:42.225Z,100668.63
2023-03-30T20:01:11.712Z,100666.12
2023-03-30T20:03:41.251Z,100668.88
2023-03-30T20:06:13.904Z,100668.73
2023-03-30T20:08:43.809Z,100657.44
2023-03-30T20:11:13.826Z,100664.66
2023-03-30T20:13:44.714Z,100657.93
2023-03-30T20:16:17.248Z,100657.66
2023-03-30T20:18:47.351Z,100646.83
2023-03-30T20:21:18.723Z,100655.39
2023-03-30T20:23:48.298Z,100640.81
2023-03-30T20:26:19.463Z,100644.80
2023-03-30T20:28:48.909Z,100641.70
2023-03-30T20:31:18.901Z,100635.88
2023-03-30T20:33:48.361Z,100639.96
2023-03-30T20:36:17.665Z,100635.52
2023-03-30T20:38:47.171Z,100633.11
2023-03-30T20:41:17.781Z,100641.74
2023-03-30T20:43:56.272Z,100642.17
2023-03-30T20:46:20.190Z,100637.66
2023-03-30T20:48:59.213Z,100640.49
2023-03-30T20:51:29.986Z,100631.42
2023-03-30T20:54:02.068Z,100627.32
2023-03-30T20:56:34.727Z,100627.55
2023-03-30T20:59:13.028Z,100630.80
2023-03-30T21:01:47.388Z,100638.09
2023-03-30T21:04:20.570Z,100631.52
2023-03-30T21:06:59.358Z,100629.71
2023-03-30T21:09:32.643Z,100623.58
2023-03-30T21:12:08.556Z,100626.48
2023-03-30T21:14:42.888Z,100620.93
2023-03-30T21:17:14.595Z,100619.20
2023-03-30T21:19:45.005Z,100614.20
2023-03-30T21:22:14.463Z,100615.19
2023-03-30T21:24:45.391Z,100609.86
2023-03-30T21:27:16.872Z,100603.34
2023-03-30T21:29:47.780Z,100601.27
2023-03-30T21:32:17.321Z,100596.95
2023-03-30T21:34:46.805Z,100598.95
2023-03-30T21:37:16.228Z,100597.42
2023-03-30T21:39:46.763Z,100589.52
2023-03-30T21:42:17.919Z,100587.77
2023-03-30T21:45:12.162Z,100587.61
2023-03-30T21:47:41.886Z,100584.06
2023-03-30T21:50:12.166Z,100578.97
2023-03-30T21:52:41.575Z,100581.67
2023-03-30T21:55:11.240Z,100572.59
2023-03-30T21:57:40.514Z,100577.99
2023-03-30T22:00:11.651Z,100570.54
2023-03-30T22:02:43.949Z,100569.16
2023-03-30T22:05:13.318Z,100567.34
2023-03-30T22:07:42.659Z,100565.95
2023-03-30T22:10:12.497Z,100560.48
2023-03-30T22:12:41.871Z,100555.02
2023-03-30T22:15:11.922Z,100554.18
2023-03-30T22:17:45.800Z,100556.27
2023-03-30T22:20:16.898Z,100555.56
2023-03-30T22:22:46.484Z,100546.69
2023-03-30T22:25:18.099Z,100555.63
2023-03-30T22:27:47.530Z,100547.86
2023-03-30T22:30:17.426Z,100539.34
2023-03-30T22:32:46.948Z,100524.88
2023-03-30T22:35:16.378Z,100517.95
2023-03-30T22:37:45.670Z,100509.58
2023-03-30T22:40:15.559Z,100507.08
2023-03-30T22:42:44.862Z,100505.06
2023-03-30T22:45:15.768Z,100497.11
2023-03-30T22:47:45.444Z,100495.09
2023-03-30T22:50:14.934Z,100482.27
2023-03-30T22:52:44.544Z,100469.98
2023-03-30T22:55:14.190Z,100475.20
2023-03-30T22:57:43.545Z,100466.25
2023-03-30T23:00:15.656Z,100467.76
2023-03-30T23:02:45.447Z,100473.03
2023-03-30T23:05:15.165Z,100457.98
2023-03-30T23:07:45.993Z,100458.34
2023-03-30T23:10:17.909Z,100448.00
2023-03-30T23:12:47.549Z,100449.32
2023-03-30T23:15:18.622Z,100440.66
2023-03-30T23:17:47.965Z,100435.24
2023-03-30T23:20:18.112Z,100424.70
2023-03-30T23:22:49.219Z,100421.38
2023-03-30T23:25:18.658Z,100416.39
2023-03-30T23:27:48.227Z,100414.74
2023-03-30T23:30:17.763Z,100408.20
2023-03-30T23:32:47.188Z,100409.66
2023-03-30T23:35:16.588Z,100405.90
2023-03-30T23:37:46.186Z,100401.57
2023-03-30T23:40:16.204Z,100394.00
2023-03-30T23:42:45.554Z,100389.02
2023-03-30T23:45:15.052Z,100393.11
2023-03-30T23:47:44.509Z,100385.69
2023-03-30T23:50:13.785Z,100376.55
2023-03-30T23:52:43.046Z,100373.69
2023-03-30T23:55:12.868Z,100367.95
2023-03-30T23:57:42.148Z,100372.73
